KLIT/LIT METAR and TAF weather

Enter ICAO airport designator
Station Type Date Time Source
KLIT METAR 2019/06/27 07:53 UTC NOAA

KLIT 270753Z 00000KT 10SM FEW250 23/22 A3013 RMK AO2 SLP203 T02330217


Station Type Date Time Source
KLIT Decoded METAR 2019/06/27 07:53 UTC NOAA

LITTLE ROCK ADAMS FIELD, AR, United States (KLIT) 34-44N 92-14W 79M
Jun 27, 2019 - 03:53 AM EDT / 2019.06.27 0753 UTC
Wind: Calm:0
Visibility: 10 mile(s):0
Sky conditions: mostly clear
Temperature: 73.9 F (23.3 C)
Dew Point: 71.1 F (21.7 C)
Relative Humidity: 90%
Pressure (altimeter): 30.13 in. Hg (1020 hPa)
ob: KLIT 270753Z 00000KT 10SM FEW250 23/22 A3013 RMK AO2 SLP203 T02330217
cycle: 8

Station Type Date Time Source
KLIT TAF 2019/06/27 06:21 UTC NOAA

TAF KLIT 270520Z 2706/2806 20006KT P6SM SCT250
TEMPO 2709/2713 3SM BR
FM271500 21008G15KT P6SM VCTS SCT040CB BKN250

Example: see airport list